Time,TemperatureF,DewpointF,PressureIn,WindDirection,WindDirectionDegrees,WindSpeedMPH,WindSpeedGustMPH,Humidity,HourlyPrecipIn,Conditions,Clouds,dailyrainin,SolarRadiationWatts/m^2,SoftwareType,DateUTC
2013-06-05 00:04:00,54.4,46.3,30.33,ESE,121,0.0,0.0,74,0.00,CLR,OVC,0.00,0.0,WeatherDisplay:10.37,2013-06-04 23:04:00,
2013-06-05 00:09:00,54.1,46.3,30.33,ESE,121,0.0,0.0,75,0.00,CLR,OVC,0.00,0.0,WeatherDisplay:10.37,2013-06-04 23:09:00,
2013-06-05 00:14:00,54.0,46.3,30.33,ESE,121,0.0,0.0,75,0.00,CLR,OVC,0.00,0.0,WeatherDisplay:10.37,2013-06-04 23:14:00,
2013-06-05 00:19:00,54.0,46.3,30.33,ESE,121,0.0,0.0,75,0.00,CLR,OVC,0.00,0.0,WeatherDisplay:10.37,2013-06-04 23:19:00,
2013-06-05 00:24:00,54.1,46.7,30.33,ESE,121,0.0,0.0,76,0.00,CLR,OVC,0.00,0.0,WeatherDisplay:10.37,2013-06-04 23:24:00,
2013-06-05 00:29:00,54.0,47.0,30.33,ESE,121,0.0,0.0,77,0.00,CLR,OVC,0.00,0.0,WeatherDisplay:10.37,2013-06-04 23:29:00,
2013-06-05 00:34:00,53.8,47.1,30.33,ESE,122,0.0,0.0,78,0.00,CLR,OVC,0.00,0.0,WeatherDisplay:10.37,2013-06-04 23:34:00,
2013-06-05 00:39:00,53.8,47.1,30.32,ESE,121,0.0,0.0,78,0.00,CLR,OVC,0.00,0.0,WeatherDisplay:10.37,2013-06-04 23:39:00,
2013-06-05 00:44:00,53.8,47.1,30.32,ESE,121,0.0,0.0,78,0.00,CLR,OVC,0.00,0.0,WeatherDisplay:10.37,2013-06-04 23:44:00,
2013-06-05 00:49:00,53.9,47.5,30.32,ESE,121,0.0,0.0,79,0.00,CLR,OVC,0.00,0.0,WeatherDisplay:10.37,2013-06-04 23:49:00,
2013-06-05 00:54:00,53.8,47.4,30.32,ESE,121,0.0,0.0,79,0.00,CLR,OVC,0.00,0.0,WeatherDisplay:10.37,2013-06-04 23:54:00,
2013-06-05 00:59:00,53.8,47.4,30.33,ESE,121,0.0,0.0,79,0.00,CLR,OVC,0.00,0.0,WeatherDisplay:10.37,2013-06-04 23:59:00,
2013-06-05 01:04:00,53.8,47.4,30.32,ESE,121,0.0,0.0,79,0.00,CLR,OVC,0.00,0.0,WeatherDisplay:10.37,2013-06-05 00:04:00,
2013-06-05 01:09:00,53.9,47.9,30.32,ESE,121,0.0,0.0,80,0.00,CLR,OVC,0.00,0.0,WeatherDisplay:10.37,2013-06-05 00:09:00,
2013-06-05 01:14:00,53.7,47.3,30.32,ESE,121,0.0,0.0,79,0.00,CLR,OVC,0.00,0.0,WeatherDisplay:10.37,2013-06-05 00:14:00,
2013-06-05 01:19:00,53.5,47.5,30.32,ESE,121,0.0,0.0,80,0.00,CLR,OVC,0.00,0.0,WeatherDisplay:10.37,2013-06-05 00:19:00,
2013-06-05 01:24:00,53.2,47.5,30.32,ESE,121,0.0,0.0,81,0.00,CLR,OVC,0.00,0.0,WeatherDisplay:10.37,2013-06-05 00:24:00,
2013-06-05 01:29:00,52.9,47.2,30.32,ESE,121,0.0,0.0,81,0.00,CLR,OVC,0.00,0.0,WeatherDisplay:10.37,2013-06-05 00:29:00,
2013-06-05 01:34:00,52.8,47.5,30.31,ESE,121,0.0,0.0,82,0.00,FEW,OVC,0.00,0.0,WeatherDisplay:10.37,2013-06-05 00:34:00,
2013-06-05 01:39:00,52.7,47.7,30.31,ESE,121,0.0,0.0,83,0.00,FEW,OVC,0.00,0.0,WeatherDisplay:10.37,2013-06-05 00:39:00,
2013-06-05 01:44:00,52.7,48.0,30.31,ESE,122,0.0,0.0,84,0.00,FEW,OVC,0.00,0.0,WeatherDisplay:10.37,2013-06-05 00:44:00,
2013-06-05 01:49:00,52.6,47.9,30.31,ESE,121,0.0,0.0,84,0.00,FEW,OVC,0.00,0.0,WeatherDisplay:10.37,2013-06-05 00:49:00,
2013-06-05 01:54:00,52.7,48.0,30.31,ESE,121,0.0,0.0,84,0.00,FEW,OVC,0.00,0.0,WeatherDisplay:10.37,2013-06-05 00:54:00,
2013-06-05 01:59:00,52.2,47.5,30.31,ESE,121,0.0,0.0,84,0.00,FEW,OVC,0.00,0.0,WeatherDisplay:10.37,2013-06-05 00:59:00,
2013-06-05 02:04:00,52.0,47.6,30.31,ESE,121,0.0,0.0,85,0.00,OVC,,0.00,0.0,WeatherDisplay:10.37,2013-06-05 01:04:00,
2013-06-05 02:09:00,52.1,48.0,30.31,ESE,121,0.0,0.0,86,0.00,OVC,,0.00,0.0,WeatherDisplay:10.37,2013-06-05 01:09:00,
2013-06-05 02:14:00,51.9,47.8,30.31,ESE,121,0.0,0.0,86,0.00,OVC,,0.00,0.0,WeatherDisplay:10.37,2013-06-05 01:14:00,
2013-06-05 02:19:00,51.9,48.2,30.30,ESE,121,0.0,0.0,87,0.00,OVC,,0.00,0.0,WeatherDisplay:10.37,2013-06-05 01:19:00,
2013-06-05 02:24:00,52.1,48.3,30.30,ESE,121,0.0,0.0,87,0.00,OVC,,0.00,0.0,WeatherDisplay:10.37,2013-06-05 01:24:00,
2013-06-05 02:29:00,52.2,48.4,30.30,ESE,121,0.0,0.0,87,0.00,OVC,,0.00,0.0,WeatherDisplay:10.37,2013-06-05 01:29:00,
2013-06-05 02:34:00,52.3,48.5,30.30,ESE,121,0.0,0.0,87,0.00,OVC,,0.00,0.0,WeatherDisplay:10.37,2013-06-05 01:34:00,
2013-06-05 02:39:00,52.5,48.7,30.30,ESE,121,0.0,0.0,87,0.00,OVC,,0.00,0.0,WeatherDisplay:10.37,2013-06-05 01:39:00,
2013-06-05 02:44:00,52.6,48.8,30.30,ESE,121,0.0,0.0,87,0.00,OVC,,0.00,0.0,WeatherDisplay:10.37,2013-06-05 01:44:00,
2013-06-05 02:49:00,52.7,48.9,30.30,ESE,121,0.0,0.0,87,0.00,OVC,,0.00,0.0,WeatherDisplay:10.37,2013-06-05 01:49:00,
2013-06-05 02:54:00,52.7,48.6,30.30,ESE,121,0.0,0.0,86,0.00,OVC,,0.00,0.0,WeatherDisplay:10.37,2013-06-05 01:54:00,
2013-06-05 02:59:00,52.5,48.4,30.30,ESE,122,0.0,0.0,86,0.00,OVC,,0.00,0.0,WeatherDisplay:10.37,2013-06-05 01:59:00,
2013-06-05 03:04:00,52.3,48.2,30.29,ESE,122,0.0,0.0,86,0.00,OVC,,0.00,0.0,WeatherDisplay:10.37,2013-06-05 02:04:00,
2013-06-05 03:09:00,51.9,47.8,30.29,ESE,121,0.0,0.0,86,0.00,OVC,,0.00,0.0,WeatherDisplay:10.37,2013-06-05 02:09:00,
2013-06-05 03:14:00,51.7,47.6,30.29,ESE,122,0.0,0.0,86,0.00,OVC,,0.00,0.0,WeatherDisplay:10.37,2013-06-05 02:14:00,
2013-06-05 03:19:00,51.5,47.5,30.29,ESE,121,0.0,0.0,86,0.00,OVC,,0.00,0.0,WeatherDisplay:10.37,2013-06-05 02:19:00,
2013-06-05 03:25:00,51.2,47.2,30.29,ESE,122,0.0,0.0,86,0.00,OVC,,0.00,0.0,WeatherDisplay:10.37,2013-06-05 02:25:00,
2013-06-05 03:30:00,50.9,47.5,30.29,ESE,121,0.0,0.0,88,0.00,OVC,,0.00,0.0,WeatherDisplay:10.37,2013-06-05 02:30:00,
2013-06-05 03:35:00,50.5,47.1,30.29,ESE,121,0.0,0.0,88,0.00,OVC,,0.00,0.0,WeatherDisplay:10.37,2013-06-05 02:35:00,
2013-06-05 03:40:00,50.1,46.7,30.29,ESE,121,0.0,0.0,88,0.00,OVC,,0.00,0.0,WeatherDisplay:10.37,2013-06-05 02:40:00,
2013-06-05 03:45:00,50.2,47.4,30.29,ESE,121,0.0,0.0,90,0.00,OVC,OVC,0.00,0.0,WeatherDisplay:10.37,2013-06-05 02:45:00,
2013-06-05 03:50:00,50.1,47.0,30.29,ESE,121,0.0,0.0,89,0.00,OVC,,0.00,0.0,WeatherDisplay:10.37,2013-06-05 02:50:00,
2013-06-05 03:55:00,50.0,46.9,30.29,ESE,121,0.0,0.0,89,0.00,OVC,OVC,0.00,0.0,WeatherDisplay:10.37,2013-06-05 02:55:00,
2013-06-05 04:00:00,49.9,46.8,30.29,ESE,121,0.0,0.0,89,0.00,OVC,OVC,0.00,0.0,WeatherDisplay:10.37,2013-06-05 03:00:00,
2013-06-05 04:05:00,49.9,47.1,30.29,ESE,122,0.0,0.0,90,0.00,OVC,,0.00,0.0,WeatherDisplay:10.37,2013-06-05 03:05:00,
2013-06-05 04:10:00,49.8,46.7,30.28,ESE,121,0.0,0.0,89,0.00,OVC,,0.00,0.0,WeatherDisplay:10.37,2013-06-05 03:10:00,
2013-06-05 04:15:00,49.8,47.0,30.28,ESE,121,0.0,0.0,90,0.00,OVC,OVC,0.00,0.0,WeatherDisplay:10.37,2013-06-05 03:15:00,
2013-06-05 04:20:00,50.1,47.6,30.28,ESE,121,0.0,0.0,91,0.00,OVC,,0.00,0.0,WeatherDisplay:10.37,2013-06-05 03:20:00,
2013-06-05 04:25:00,50.4,47.9,30.28,ESE,118,0.0,0.0,91,0.00,OVC,,0.00,0.0,WeatherDisplay:10.37,2013-06-05 03:25:00,
2013-06-05 04:30:00,50.5,48.0,30.28,ESE,120,0.0,1.0,91,0.00,OVC,OVC,0.00,0.0,WeatherDisplay:10.37,2013-06-05 03:30:00,
2013-06-05 04:35:00,50.5,48.0,30.28,SE,129,0.0,1.0,91,0.00,OVC,OVC,0.00,0.0,WeatherDisplay:10.37,2013-06-05 03:35:00,
2013-06-05 04:40:00,50.6,48.1,30.28,SE,130,1.2,0.0,91,0.00,OVC,,0.00,0.0,WeatherDisplay:10.37,2013-06-05 03:40:00,
2013-06-05 04:45:00,50.6,48.1,30.28,SE,129,0.0,0.0,91,0.00,OVC,,0.00,0.0,WeatherDisplay:10.37,2013-06-05 03:45:00,
2013-06-05 04:50:00,50.7,48.2,30.28,SE,131,0.0,0.0,91,0.00,OVC,,0.00,0.0,WeatherDisplay:10.37,2013-06-05 03:50:00,
2013-06-05 04:55:00,50.8,48.3,30.27,SE,130,0.0,0.0,91,0.00,OVC,OVC,0.00,0.0,WeatherDisplay:10.37,2013-06-05 03:55:00,
2013-06-05 05:00:00,50.9,48.4,30.27,SE,131,0.0,0.0,91,0.00,OVC,OVC,0.00,0.0,WeatherDisplay:10.37,2013-06-05 04:00:00,
2013-06-05 05:01:00,51.0,48.5,30.27,SE,131,0.0,0.0,91,0.00,OVC,,0.00,0.0,WeatherDisplay:10.37,2013-06-05 04:01:00,
2013-06-05 05:07:00,51.0,48.5,30.27,SE,131,1.2,0.0,91,0.00,OVC,,0.00,0.0,WeatherDisplay:10.37,2013-06-05 04:07:00,
2013-06-05 05:12:00,51.1,48.6,30.27,SE,131,0.0,0.0,91,0.00,OVC,,0.00,0.0,WeatherDisplay:10.37,2013-06-05 04:12:00,
2013-06-05 05:17:00,51.2,48.7,30.27,SE,131,0.0,0.0,91,0.00,OVC,,0.00,0.0,WeatherDisplay:10.37,2013-06-05 04:17:00,
2013-06-05 05:22:00,51.2,48.7,30.27,SE,129,0.0,0.0,91,0.00,OVC,,0.00,0.0,WeatherDisplay:10.37,2013-06-05 04:22:00,
2013-06-05 05:27:00,51.4,48.9,30.28,South,180,0.0,0.1,91,0.00,OVC,,0.00,0.0,WeatherDisplay:10.37,2013-06-05 04:27:00,
2013-06-05 05:32:00,51.5,49.0,30.28,WNW,294,0.0,0.0,91,0.00,OVC,,0.00,0.0,WeatherDisplay:10.37,2013-06-05 04:32:00,
2013-06-05 05:37:00,51.6,49.1,30.28,WNW,294,0.0,0.0,91,0.00,OVC,,0.00,0.0,WeatherDisplay:10.37,2013-06-05 04:37:00,
2013-06-05 05:42:00,51.6,49.1,30.27,SSW,207,1.2,0.0,91,0.00,OVC,,0.00,0.0,WeatherDisplay:10.37,2013-06-05 04:42:00,
2013-06-05 05:47:00,51.7,49.2,30.28,SSW,207,0.0,0.0,91,0.00,OVC,,0.00,0.0,WeatherDisplay:10.37,2013-06-05 04:47:00,
2013-06-05 05:52:00,51.8,49.3,30.27,SSE,167,0.0,0.0,91,0.00,OVC,,0.00,0.0,WeatherDisplay:10.37,2013-06-05 04:52:00,
2013-06-05 05:57:00,52.1,49.6,30.27,SE,138,1.2,1.2,91,0.00,OVC,,0.00,0.0,WeatherDisplay:10.37,2013-06-05 04:57:00,
2013-06-05 06:02:00,52.2,49.7,30.27,SE,139,1.2,0.0,91,0.00,OVC,,0.00,0.0,WeatherDisplay:10.37,2013-06-05 05:02:00,
2013-06-05 06:07:00,52.3,49.8,30.27,SE,139,0.0,0.0,91,0.00,OVC,,0.00,0.0,WeatherDisplay:10.37,2013-06-05 05:07:00,
2013-06-05 06:12:00,52.4,49.8,30.27,SE,131,0.0,0.0,91,0.00,OVC,,0.00,0.0,WeatherDisplay:10.37,2013-06-05 05:12:00,
2013-06-05 06:17:00,52.5,49.9,30.27,SE,131,0.0,0.0,91,0.00,OVC,,0.00,0.0,WeatherDisplay:10.37,2013-06-05 05:17:00,
2013-06-05 06:22:00,52.5,49.9,30.27,SE,131,0.0,0.0,91,0.00,OVC,,0.00,0.0,WeatherDisplay:10.37,2013-06-05 05:22:00,
2013-06-05 06:27:00,52.5,49.9,30.27,SE,131,1.2,1.2,91,0.00,OVC,,0.00,0.0,WeatherDisplay:10.37,2013-06-05 05:27:00,
2013-06-05 06:32:00,52.7,50.1,30.27,SE,131,0.0,0.0,91,0.00,OVC,,0.00,0.0,WeatherDisplay:10.37,2013-06-05 05:32:00,
2013-06-05 06:37:00,52.8,50.2,30.27,East,96,0.0,0.0,91,0.00,OVC,,0.00,0.0,WeatherDisplay:10.37,2013-06-05 05:37:00,
2013-06-05 06:42:00,52.7,50.1,30.27,ESE,108,0.0,0.0,91,0.00,OVC,,0.00,0.0,WeatherDisplay:10.37,2013-06-05 05:42:00,
2013-06-05 06:47:00,52.5,49.9,30.27,ESE,114,1.2,1.2,91,0.00,OVC,,0.00,0.0,WeatherDisplay:10.37,2013-06-05 05:47:00,
2013-06-05 06:52:00,52.5,49.9,30.27,ESE,117,1.2,1.2,91,0.00,OVC,,0.00,0.0,WeatherDisplay:10.37,2013-06-05 05:52:00,
2013-06-05 06:57:00,52.5,50.2,30.26,SE,143,1.2,0.0,92,0.00,OVC,,0.00,0.0,WeatherDisplay:10.37,2013-06-05 05:57:00,
2013-06-05 07:02:00,52.6,50.0,30.26,ESE,118,1.2,1.2,91,0.00,OVC,,0.00,0.0,WeatherDisplay:10.37,2013-06-05 06:02:00,
2013-06-05 07:07:00,52.5,49.9,30.26,ESE,122,1.2,0.0,91,0.00,OVC,,0.00,0.0,WeatherDisplay:10.37,2013-06-05 06:07:00,
2013-06-05 07:12:00,52.7,50.4,30.26,ESE,120,0.0,0.0,92,0.00,OVC,,0.00,0.0,WeatherDisplay:10.37,2013-06-05 06:12:00,
2013-06-05 07:17:00,52.6,50.0,30.26,SE,146,1.2,1.2,91,0.00,OVC,,0.00,0.0,WeatherDisplay:10.37,2013-06-05 06:17:00,
2013-06-05 07:22:00,52.6,50.0,30.26,ESE,117,0.0,0.0,91,0.00,OVC,,0.00,0.0,WeatherDisplay:10.37,2013-06-05 06:22:00,
2013-06-05 07:27:00,52.8,50.2,30.26,ESE,108,0.0,0.0,91,0.00,OVC,,0.00,0.0,WeatherDisplay:10.37,2013-06-05 06:27:00,
2013-06-05 07:32:00,52.9,50.3,30.26,ESE,121,0.0,0.0,91,0.00,BKN,OVC,0.00,0.0,WeatherDisplay:10.37,2013-06-05 06:32:00,
2013-06-05 07:37:00,53.2,50.6,30.26,SE,129,1.2,0.0,91,0.00,BKN,OVC,0.00,0.0,WeatherDisplay:10.37,2013-06-05 06:37:00,
2013-06-05 07:42:00,53.4,50.8,30.26,SSE,153,0.0,0.0,91,0.00,BKN,OVC,0.00,0.0,WeatherDisplay:10.37,2013-06-05 06:42:00,
2013-06-05 07:47:00,53.6,51.0,30.26,ESE,109,0.0,0.0,91,0.00,BKN,OVC,0.00,0.0,WeatherDisplay:10.37,2013-06-05 06:47:00,
2013-06-05 07:52:00,53.9,51.0,30.26,ESE,113,1.2,0.0,90,0.00,BKN,OVC,0.00,0.0,WeatherDisplay:10.37,2013-06-05 06:52:00,
2013-06-05 07:57:00,54.4,51.5,30.26,South,177,0.0,0.0,90,0.00,BKN,OVC,0.00,0.0,WeatherDisplay:10.37,2013-06-05 06:57:00,
2013-06-05 08:02:00,54.7,51.2,30.25,South,191,0.0,0.0,88,0.00,OVC,,0.00,0.0,WeatherDisplay:10.37,2013-06-05 07:02:00,
2013-06-05 08:07:00,54.7,50.9,30.25,ESE,118,1.2,1.2,87,0.00,OVC,,0.00,0.0,WeatherDisplay:10.37,2013-06-05 07:07:00,
2013-06-05 08:12:00,54.8,51.0,30.25,SE,138,1.2,0.0,87,0.00,OVC,,0.00,0.0,WeatherDisplay:10.37,2013-06-05 07:12:00,
2013-06-05 08:17:00,55.0,51.2,30.26,SE,138,0.0,0.0,87,0.00,OVC,,0.00,0.0,WeatherDisplay:10.37,2013-06-05 07:17:00,
2013-06-05 08:22:00,55.5,51.7,30.25,SE,139,0.0,0.0,87,0.00,OVC,,0.00,0.0,WeatherDisplay:10.37,2013-06-05 07:22:00,
2013-06-05 08:27:00,55.5,51.4,30.25,SE,124,0.0,0.0,86,0.00,OVC,,0.00,0.0,WeatherDisplay:10.37,2013-06-05 07:27:00,
2013-06-05 08:32:00,55.8,51.4,30.25,SE,124,0.0,0.0,85,0.00,BKN,OVC,0.00,0.0,WeatherDisplay:10.37,2013-06-05 07:32:00,
2013-06-05 08:37:00,56.2,51.4,30.25,SE,131,0.0,0.0,84,0.00,BKN,OVC,0.00,0.0,WeatherDisplay:10.37,2013-06-05 07:37:00,
2013-06-05 08:42:00,56.7,52.2,30.24,SE,131,0.0,0.1,85,0.00,BKN,OVC,0.00,0.0,WeatherDisplay:10.37,2013-06-05 07:42:00,
2013-06-05 08:47:00,57.4,52.6,30.25,SE,131,0.0,0.0,84,0.00,BKN,OVC,0.00,0.0,WeatherDisplay:10.37,2013-06-05 07:47:00,
2013-06-05 08:52:00,58.1,53.0,30.24,SW,236,0.0,0.0,83,0.00,BKN,OVC,0.00,0.0,WeatherDisplay:10.37,2013-06-05 07:52:00,
2013-06-05 08:57:00,58.5,52.4,30.24,SSE,165,0.0,0.0,80,0.00,BKN,OVC,0.00,0.0,WeatherDisplay:10.37,2013-06-05 07:57:00,
2013-06-05 09:02:00,58.2,51.7,30.24,ESE,123,1.0,0.0,79,0.00,OVC,,0.00,0.0,WeatherDisplay:10.37,2013-06-05 08:02:00,
2013-06-05 09:08:00,58.3,52.2,30.24,SSE,155,1.0,1.0,80,0.00,OVC,,0.00,0.0,WeatherDisplay:10.37,2013-06-05 08:08:00,
2013-06-05 09:13:00,58.3,52.2,30.24,SE,136,1.2,0.0,80,0.00,OVC,,0.00,0.0,WeatherDisplay:10.37,2013-06-05 08:13:00,
2013-06-05 09:18:00,58.4,52.3,30.24,ESE,122,0.0,0.3,80,0.00,OVC,,0.00,0.0,WeatherDisplay:10.37,2013-06-05 08:18:00,
2013-06-05 09:23:00,58.4,52.3,30.24,ESE,117,0.0,0.7,80,0.00,OVC,,0.00,0.0,WeatherDisplay:10.37,2013-06-05 08:23:00,
2013-06-05 09:28:00,57.9,52.1,30.24,ESE,116,1.2,0.0,81,0.00,OVC,,0.00,0.0,WeatherDisplay:10.37,2013-06-05 08:28:00,
2013-06-05 09:33:00,58.1,52.6,30.24,ESE,116,1.2,1.2,82,0.00,BKN,OVC,0.00,0.0,WeatherDisplay:10.37,2013-06-05 08:33:00,
2013-06-05 09:38:00,58.0,52.2,30.24,ESE,118,1.2,0.0,81,0.00,BKN,OVC,0.00,0.0,WeatherDisplay:10.37,2013-06-05 08:38:00,
2013-06-05 09:43:00,58.2,52.7,30.24,ESE,119,0.0,0.0,82,0.00,BKN,OVC,0.00,0.0,WeatherDisplay:10.37,2013-06-05 08:43:00,
2013-06-05 09:48:00,58.3,52.5,30.23,SE,128,2.3,2.3,81,0.00,BKN,OVC,0.00,0.0,WeatherDisplay:10.37,2013-06-05 08:48:00,
2013-06-05 09:53:00,58.4,52.9,30.23,SSW,197,1.2,0.0,82,0.00,BKN,OVC,0.00,0.0,WeatherDisplay:10.37,2013-06-05 08:53:00,
2013-06-05 09:58:00,58.7,52.9,30.23,SE,130,1.2,0.0,81,0.00,BKN,OVC,0.00,0.0,WeatherDisplay:10.37,2013-06-05 08:58:00,
2013-06-05 10:03:00,59.1,52.9,30.23,ESE,121,2.3,2.3,80,0.00,SCT,OVC,0.00,0.0,WeatherDisplay:10.37,2013-06-05 09:03:00,
2013-06-05 10:08:00,59.5,53.7,30.23,SW,235,1.2,0.0,81,0.00,SCT,OVC,0.00,0.0,WeatherDisplay:10.37,2013-06-05 09:08:00,
2013-06-05 10:13:00,59.8,53.3,30.23,SSE,155,1.2,1.2,79,0.00,SCT,OVC,0.00,0.0,WeatherDisplay:10.37,2013-06-05 09:13:00,
2013-06-05 10:18:00,60.5,54.6,30.23,South,183,0.0,0.0,81,0.00,SCT,OVC,0.00,0.0,WeatherDisplay:10.37,2013-06-05 09:18:00,
2013-06-05 10:23:00,61.2,54.3,30.23,SE,130,1.2,1.2,78,0.00,SCT,OVC,0.00,0.0,WeatherDisplay:10.37,2013-06-05 09:23:00,
2013-06-05 10:28:00,61.3,53.7,30.23,SE,128,1.2,1.2,76,0.00,SCT,OVC,0.00,0.0,WeatherDisplay:10.37,2013-06-05 09:28:00,
2013-06-05 10:33:00,61.2,53.6,30.22,SSE,160,0.0,0.0,76,0.00,FEW,OVC,0.00,0.0,WeatherDisplay:10.37,2013-06-05 09:33:00,
2013-06-05 10:38:00,61.1,53.5,30.22,ESE,118,1.2,1.2,76,0.00,FEW,OVC,0.00,0.0,WeatherDisplay:10.37,2013-06-05 09:38:00,
2013-06-05 10:43:00,60.9,53.6,30.22,SE,139,2.3,2.3,77,0.00,FEW,OVC,0.00,0.0,WeatherDisplay:10.37,2013-06-05 09:43:00,
2013-06-05 10:48:00,60.7,53.8,30.22,SE,144,1.2,1.2,78,0.00,FEW,OVC,0.00,0.0,WeatherDisplay:10.37,2013-06-05 09:48:00,
2013-06-05 10:53:00,62.1,55.2,30.22,SSE,147,3.5,3.5,78,0.00,FEW,OVC,0.00,0.0,WeatherDisplay:10.37,2013-06-05 09:53:00,
2013-06-05 10:58:00,63.0,54.9,30.22,ESE,102,3.5,3.5,75,0.00,FEW,OVC,0.00,0.0,WeatherDisplay:10.37,2013-06-05 09:58:00,
2013-06-05 11:03:00,62.9,54.1,30.22,SE,129,1.2,1.2,73,0.00,FEW,OVC,0.00,0.0,WeatherDisplay:10.37,2013-06-05 10:03:00,
2013-06-05 11:08:00,62.9,54.5,30.22,SSE,150,2.3,2.3,74,0.00,FEW,OVC,0.00,0.0,WeatherDisplay:10.37,2013-06-05 10:08:00,
2013-06-05 11:13:00,62.9,54.9,30.22,East,101,1.2,1.2,75,0.00,FEW,OVC,0.00,0.0,WeatherDisplay:10.37,2013-06-05 10:13:00,
2013-06-05 11:18:00,63.5,55.1,30.22,SE,138,1.2,1.2,74,0.00,FEW,OVC,0.00,0.0,WeatherDisplay:10.37,2013-06-05 10:18:00,
2013-06-05 11:23:00,64.4,54.8,30.22,ESE,122,2.3,2.3,71,0.00,FEW,OVC,0.00,0.0,WeatherDisplay:10.37,2013-06-05 10:23:00,
2013-06-05 11:28:00,64.1,53.7,30.22,SE,141,2.3,2.3,69,0.00,FEW,OVC,0.00,0.0,WeatherDisplay:10.37,2013-06-05 10:28:00,
2013-06-05 11:33:00,63.6,54.0,30.22,East,98,3.5,3.5,71,0.00,FEW,OVC,0.00,0.0,WeatherDisplay:10.37,2013-06-05 10:33:00,
2013-06-05 11:38:00,63.9,54.7,30.21,SE,136,1.2,1.2,72,0.00,FEW,OVC,0.00,0.0,WeatherDisplay:10.37,2013-06-05 10:38:00,
2013-06-05 11:43:00,63.9,55.4,30.21,SE,128,1.2,1.2,74,0.00,FEW,OVC,0.00,0.0,WeatherDisplay:10.37,2013-06-05 10:43:00,
2013-06-05 11:48:00,64.0,55.5,30.21,ESE,103,3.5,3.5,74,0.00,FEW,OVC,0.00,0.0,WeatherDisplay:10.37,2013-06-05 10:48:00,
2013-06-05 11:53:00,64.0,55.9,30.21,ESE,120,1.2,1.2,75,0.00,FEW,OVC,0.00,0.0,WeatherDisplay:10.37,2013-06-05 10:53:00,
2013-06-05 11:58:00,63.7,54.9,30.21,SE,134,3.5,3.5,73,0.00,FEW,OVC,0.00,0.0,WeatherDisplay:10.37,2013-06-05 10:58:00,
2013-06-05 12:03:00,63.2,54.8,30.21,SE,141,4.6,4.6,74,0.00,FEW,OVC,0.00,0.0,WeatherDisplay:10.37,2013-06-05 11:03:00,
2013-06-05 12:08:00,63.6,55.5,30.21,SE,124,2.0,2.0,75,0.00,FEW,OVC,0.00,0.0,WeatherDisplay:10.37,2013-06-05 11:08:00,
2013-06-05 12:13:00,64.0,54.8,30.20,SSE,157,4.6,4.6,72,0.00,FEW,OVC,0.00,0.0,WeatherDisplay:10.37,2013-06-05 11:13:00,
2013-06-05 12:18:00,63.3,54.1,30.20,SW,222,3.5,3.5,72,0.00,FEW,OVC,0.00,0.0,WeatherDisplay:10.37,2013-06-05 11:18:00,
2013-06-05 12:23:00,63.0,54.2,30.20,SW,228,4.6,4.6,73,0.00,FEW,OVC,0.00,0.0,WeatherDisplay:10.37,2013-06-05 11:23:00,
2013-06-05 12:28:00,62.6,54.2,30.20,SE,127,2.3,2.3,74,0.00,FEW,OVC,0.00,0.0,WeatherDisplay:10.37,2013-06-05 11:28:00,
2013-06-05 12:33:00,63.2,55.1,30.20,East,86,3.0,3.0,75,0.00,FEW,OVC,0.00,0.0,WeatherDisplay:10.37,2013-06-05 11:33:00,
2013-06-05 12:38:00,64.0,55.9,30.20,ESE,115,2.3,2.3,75,0.00,FEW,OVC,0.00,0.0,WeatherDisplay:10.37,2013-06-05 11:38:00,
2013-06-05 12:43:00,64.1,54.5,30.20,SW,231,3.5,3.5,71,0.00,FEW,OVC,0.00,0.0,WeatherDisplay:10.37,2013-06-05 11:43:00,
2013-06-05 12:48:00,63.3,53.7,30.20,SSE,152,2.3,0.0,71,0.00,FEW,OVC,0.00,0.0,WeatherDisplay:10.37,2013-06-05 11:48:00,
2013-06-05 12:53:00,62.9,53.7,30.20,SSE,148,3.5,3.5,72,0.00,FEW,OVC,0.00,0.0,WeatherDisplay:10.37,2013-06-05 11:53:00,
2013-06-05 12:58:00,62.5,53.3,30.20,SE,134,3.5,3.5,72,0.00,FEW,OVC,0.00,0.0,WeatherDisplay:10.37,2013-06-05 11:58:00,
2013-06-05 13:03:00,62.2,53.8,30.19,ESE,105,2.3,2.3,74,0.00,OVC,,0.00,0.0,WeatherDisplay:10.37,2013-06-05 12:03:00,
2013-06-05 13:08:00,62.1,53.7,30.19,ESE,105,1.2,1.2,74,0.00,OVC,,0.00,0.0,WeatherDisplay:10.37,2013-06-05 12:08:00,
2013-06-05 13:13:00,62.0,53.2,30.19,ESE,117,3.5,3.5,73,0.00,OVC,,0.00,0.0,WeatherDisplay:10.37,2013-06-05 12:13:00,
2013-06-05 13:18:00,62.1,53.7,30.19,SE,129,1.2,1.2,74,0.00,OVC,,0.00,0.0,WeatherDisplay:10.37,2013-06-05 12:18:00,
2013-06-05 13:23:00,62.3,53.5,30.19,ESE,116,2.3,2.3,73,0.00,OVC,,0.00,0.0,WeatherDisplay:10.37,2013-06-05 12:23:00,
2013-06-05 13:28:00,62.5,53.7,30.19,SE,124,1.2,1.2,73,0.00,OVC,,0.00,0.0,WeatherDisplay:10.37,2013-06-05 12:28:00,
2013-06-05 13:33:00,63.0,54.2,30.19,ESE,122,1.2,1.2,73,0.00,FEW,OVC,0.00,0.0,WeatherDisplay:10.37,2013-06-05 12:33:00,
2013-06-05 13:38:00,63.7,53.7,30.19,SSW,200,1.2,1.2,70,0.00,FEW,OVC,0.00,0.0,WeatherDisplay:10.37,2013-06-05 12:38:00,
2013-06-05 13:43:00,64.0,53.6,30.19,West,263,2.3,2.3,69,0.00,FEW,OVC,0.00,0.0,WeatherDisplay:10.37,2013-06-05 12:43:00,
2013-06-05 13:48:00,64.5,54.5,30.19,South,171,0.0,0.0,70,0.00,FEW,OVC,0.00,0.0,WeatherDisplay:10.37,2013-06-05 12:48:00,
2013-06-05 13:53:00,64.9,53.3,30.19,SE,131,1.2,1.2,66,0.00,FEW,OVC,0.00,0.0,WeatherDisplay:10.37,2013-06-05 12:53:00,
2013-06-05 13:58:00,65.2,53.6,30.18,SSE,148,2.3,2.3,66,0.00,FEW,OVC,0.00,0.0,WeatherDisplay:10.37,2013-06-05 12:58:00,
2013-06-05 14:03:00,65.0,52.5,30.19,SSE,150,1.2,1.2,64,0.00,FEW,OVC,0.00,0.0,WeatherDisplay:10.37,2013-06-05 13:03:00,
2013-06-05 14:08:00,64.7,53.1,30.19,SSW,205,1.2,1.2,66,0.00,FEW,OVC,0.00,0.0,WeatherDisplay:10.37,2013-06-05 13:08:00,
2013-06-05 14:13:00,64.5,52.9,30.19,SE,143,1.2,1.2,66,0.00,FEW,OVC,0.00,0.0,WeatherDisplay:10.37,2013-06-05 13:13:00,
2013-06-05 14:18:00,64.1,52.1,30.19,SE,139,1.2,0.0,65,0.00,FEW,OVC,0.00,0.0,WeatherDisplay:10.37,2013-06-05 13:18:00,
2013-06-05 14:23:00,63.5,51.5,30.19,SSE,154,0.0,0.0,65,0.00,FEW,OVC,0.00,0.0,WeatherDisplay:10.37,2013-06-05 13:23:00,
2013-06-05 14:28:00,63.2,53.3,30.19,SE,133,0.0,0.0,70,0.00,FEW,OVC,0.00,0.0,WeatherDisplay:10.37,2013-06-05 13:28:00,
2013-06-05 14:33:00,62.7,52.4,30.19,ESE,111,1.2,1.2,69,0.00,OVC,,0.00,0.0,WeatherDisplay:10.37,2013-06-05 13:33:00,
2013-06-05 14:38:00,62.1,52.2,30.19,SE,128,1.2,1.2,70,0.00,OVC,,0.00,0.0,WeatherDisplay:10.37,2013-06-05 13:38:00,
2013-06-05 14:43:00,61.8,52.3,30.19,SE,133,2.0,2.0,71,0.00,OVC,,0.00,0.0,WeatherDisplay:10.37,2013-06-05 13:43:00,
2013-06-05 14:48:00,61.8,52.3,30.19,SE,124,1.2,1.2,71,0.00,OVC,,0.00,0.0,WeatherDisplay:10.37,2013-06-05 13:48:00,
2013-06-05 14:54:00,61.9,52.4,30.18,ESE,123,2.3,2.3,71,0.00,OVC,,0.00,0.0,WeatherDisplay:10.37,2013-06-05 13:54:00,
2013-06-05 14:59:00,62.4,52.1,30.18,South,169,2.3,2.3,69,0.00,OVC,,0.00,0.0,WeatherDisplay:10.37,2013-06-05 13:59:00,
2013-06-05 15:04:00,62.8,53.3,30.18,SE,124,1.2,1.2,71,0.00,OVC,,0.00,0.0,WeatherDisplay:10.37,2013-06-05 14:04:00,
2013-06-05 15:09:00,63.2,52.5,30.18,SSE,157,3.5,3.5,68,0.00,OVC,,0.00,0.0,WeatherDisplay:10.37,2013-06-05 14:09:00,
2013-06-05 15:14:00,63.5,53.1,30.18,SSE,150,2.0,2.0,69,0.00,OVC,,0.00,0.0,WeatherDisplay:10.37,2013-06-05 14:14:00,
2013-06-05 15:19:00,63.4,52.7,30.18,SSE,150,2.3,2.3,68,0.00,OVC,,0.00,0.0,WeatherDisplay:10.37,2013-06-05 14:19:00,
2013-06-05 15:24:00,63.6,52.8,30.18,SE,127,1.2,0.0,68,0.00,OVC,,0.00,0.0,WeatherDisplay:10.37,2013-06-05 14:24:00,
2013-06-05 15:29:00,63.7,52.9,30.18,ESE,115,3.5,3.5,68,0.00,OVC,,0.00,0.0,WeatherDisplay:10.37,2013-06-05 14:29:00,
2013-06-05 15:34:00,63.5,53.1,30.18,ESE,123,2.3,2.3,69,0.00,OVC,,0.00,0.0,WeatherDisplay:10.37,2013-06-05 14:34:00,
2013-06-05 15:39:00,64.1,53.3,30.18,WSW,254,2.3,2.3,68,0.00,OVC,,0.00,0.0,WeatherDisplay:10.37,2013-06-05 14:39:00,
2013-06-05 15:44:00,64.1,53.7,30.18,SE,141,1.2,1.2,69,0.00,OVC,,0.00,0.0,WeatherDisplay:10.37,2013-06-05 14:44:00,
2013-06-05 15:49:00,64.3,52.7,30.18,ESE,123,2.3,2.3,66,0.00,OVC,,0.00,0.0,WeatherDisplay:10.37,2013-06-05 14:49:00,
2013-06-05 15:54:00,64.3,53.1,30.18,SE,146,1.2,1.2,67,0.00,OVC,,0.00,0.0,WeatherDisplay:10.37,2013-06-05 14:54:00,
2013-06-05 15:59:00,64.2,52.6,30.17,ESE,115,2.3,2.3,66,0.00,OVC,,0.00,0.0,WeatherDisplay:10.37,2013-06-05 14:59:00,
2013-06-05 16:04:00,64.1,52.9,30.18,SE,134,2.3,2.3,67,0.00,OVC,,0.00,0.0,WeatherDisplay:10.37,2013-06-05 15:04:00,
2013-06-05 16:09:00,64.1,53.3,30.17,South,189,1.2,1.2,68,0.00,OVC,,0.00,0.0,WeatherDisplay:10.37,2013-06-05 15:09:00,
2013-06-05 16:14:00,63.9,52.7,30.17,SSE,158,1.2,0.0,67,0.00,OVC,,0.00,0.0,WeatherDisplay:10.37,2013-06-05 15:14:00,
2013-06-05 16:19:00,63.6,52.8,30.17,SE,129,2.3,2.3,68,0.00,OVC,,0.00,0.0,WeatherDisplay:10.37,2013-06-05 15:19:00,
2013-06-05 16:24:00,63.7,52.9,30.17,ESE,120,1.2,0.0,68,0.00,OVC,,0.00,0.0,WeatherDisplay:10.37,2013-06-05 15:24:00,
2013-06-05 16:29:00,63.8,52.6,30.17,ESE,122,2.3,2.3,67,0.00,OVC,,0.00,0.0,WeatherDisplay:10.37,2013-06-05 15:29:00,
2013-06-05 16:34:00,63.6,52.4,30.17,SSE,152,2.3,2.3,67,0.00,OVC,,0.00,0.0,WeatherDisplay:10.37,2013-06-05 15:34:00,
2013-06-05 16:39:00,63.5,52.3,30.17,SE,127,1.2,1.2,67,0.00,OVC,,0.00,0.0,WeatherDisplay:10.37,2013-06-05 15:39:00,
2013-06-05 16:44:00,63.2,52.5,30.17,SSE,150,1.2,1.2,68,0.00,OVC,,0.00,0.0,WeatherDisplay:10.37,2013-06-05 15:44:00,
2013-06-05 16:49:00,62.6,52.3,30.17,SE,137,1.2,1.2,69,0.00,OVC,,0.00,0.0,WeatherDisplay:10.37,2013-06-05 15:49:00,
2013-06-05 16:54:00,62.1,51.8,30.17,SSE,158,1.2,1.2,69,0.00,OVC,,0.00,0.0,WeatherDisplay:10.37,2013-06-05 15:54:00,
2013-06-05 16:59:00,61.6,52.1,30.17,SE,129,1.2,1.2,71,0.00,OVC,,0.00,0.0,WeatherDisplay:10.37,2013-06-05 15:59:00,
2013-06-05 17:04:00,61.3,51.8,30.17,SE,138,1.2,1.2,71,0.00,OVC,,0.00,0.0,WeatherDisplay:10.37,2013-06-05 16:04:00,
2013-06-05 17:09:00,60.9,52.2,30.18,SSE,152,1.0,1.0,73,0.00,OVC,,0.00,0.0,WeatherDisplay:10.37,2013-06-05 16:09:00,
2013-06-05 17:14:00,60.3,52.0,30.18,SE,144,1.2,0.0,74,0.00,OVC,,0.00,0.0,WeatherDisplay:10.37,2013-06-05 16:14:00,
2013-06-05 17:19:00,59.9,51.6,30.18,SE,136,0.0,0.0,74,0.00,OVC,,0.00,0.0,WeatherDisplay:10.37,2013-06-05 16:19:00,
2013-06-05 17:24:00,59.4,51.5,30.18,SSE,148,2.3,2.3,75,0.00,OVC,,0.00,0.0,WeatherDisplay:10.37,2013-06-05 16:24:00,
2013-06-05 17:29:00,59.0,51.8,30.18,SE,131,1.2,0.0,77,0.00,OVC,,0.00,0.0,WeatherDisplay:10.37,2013-06-05 16:29:00,
2013-06-05 17:34:00,58.8,51.2,30.18,ESE,123,2.3,2.3,76,0.00,OVC,,0.00,0.0,WeatherDisplay:10.37,2013-06-05 16:34:00,
2013-06-05 17:39:00,58.6,51.4,30.18,SE,141,1.2,1.2,77,0.00,OVC,,0.00,0.0,WeatherDisplay:10.37,2013-06-05 16:39:00,
2013-06-05 17:44:00,58.3,51.5,30.18,SE,143,1.2,1.2,78,0.00,OVC,,0.00,0.0,WeatherDisplay:10.37,2013-06-05 16:44:00,
2013-06-05 17:49:00,58.0,51.5,30.18,ESE,123,1.0,0.0,79,0.00,OVC,,0.00,0.0,WeatherDisplay:10.37,2013-06-05 16:49:00,
2013-06-05 17:54:00,57.9,51.8,30.19,SSE,154,1.2,0.0,80,0.00,OVC,,0.00,0.0,WeatherDisplay:10.37,2013-06-05 16:54:00,
2013-06-05 17:59:00,57.6,51.5,30.19,SE,144,0.0,0.0,80,0.00,OVC,,0.00,0.0,WeatherDisplay:10.37,2013-06-05 16:59:00,
2013-06-05 18:04:00,57.1,51.3,30.19,SE,146,1.2,1.2,81,0.00,OVC,,0.00,0.0,WeatherDisplay:10.37,2013-06-05 17:04:00,
2013-06-05 18:09:00,56.7,51.3,30.19,WSW,238,1.0,1.0,82,0.00,OVC,,0.00,0.0,WeatherDisplay:10.37,2013-06-05 17:09:00,
2013-06-05 18:14:00,56.3,51.2,30.19,South,176,2.3,2.3,83,0.00,OVC,,0.00,0.0,WeatherDisplay:10.37,2013-06-05 17:14:00,
2013-06-05 18:19:00,55.9,51.1,30.19,SE,145,2.3,2.3,84,0.00,OVC,,0.00,0.0,WeatherDisplay:10.37,2013-06-05 17:19:00,
2013-06-05 18:24:00,55.7,51.3,30.19,SSE,153,1.2,0.0,85,0.00,OVC,,0.00,0.0,WeatherDisplay:10.37,2013-06-05 17:24:00,
2013-06-05 18:29:00,55.5,51.4,30.19,SSE,160,0.0,0.0,86,0.00,OVC,,0.00,0.0,WeatherDisplay:10.37,2013-06-05 17:29:00,
2013-06-05 18:34:00,55.3,51.5,30.19,SE,136,1.2,1.2,87,0.00,OVC,,0.00,0.0,WeatherDisplay:10.37,2013-06-05 17:34:00,
2013-06-05 18:39:00,55.2,51.4,30.18,ESE,115,2.3,2.3,87,0.00,OVC,,0.00,0.0,WeatherDisplay:10.37,2013-06-05 17:39:00,
2013-06-05 18:44:00,54.9,51.1,30.19,SE,129,1.2,1.2,87,0.01,RA,OVC,0.01,0.0,WeatherDisplay:10.37,2013-06-05 17:44:00,
2013-06-05 18:49:00,54.8,51.3,30.19,SSE,158,1.2,1.2,88,0.01,RA,OVC,0.01,0.0,WeatherDisplay:10.37,2013-06-05 17:49:00,
2013-06-05 18:54:00,54.6,51.1,30.18,SE,129,0.0,0.0,88,0.01,OVC,,0.01,0.0,WeatherDisplay:10.37,2013-06-05 17:54:00,
2013-06-05 18:59:00,54.5,51.3,30.19,SSE,168,1.2,0.0,89,0.01,OVC,,0.01,0.0,WeatherDisplay:10.37,2013-06-05 17:59:00,
2013-06-05 19:04:00,54.4,51.2,30.18,SE,126,1.2,0.0,89,0.01,OVC,,0.01,0.0,WeatherDisplay:10.37,2013-06-05 18:04:00,
2013-06-05 19:09:00,54.3,51.1,30.18,SE,138,1.2,1.2,89,0.01,OVC,,0.01,0.0,WeatherDisplay:10.37,2013-06-05 18:09:00,
2013-06-05 19:14:00,54.3,51.4,30.19,SE,132,1.2,1.2,90,0.01,OVC,,0.01,0.0,WeatherDisplay:10.37,2013-06-05 18:14:00,
2013-06-05 19:19:00,54.3,51.1,30.19,SE,127,0.0,0.0,89,0.01,OVC,,0.01,0.0,WeatherDisplay:10.37,2013-06-05 18:19:00,
2013-06-05 19:24:00,54.3,51.1,30.19,SE,132,1.0,1.0,89,0.01,OVC,,0.01,0.0,WeatherDisplay:10.37,2013-06-05 18:24:00,
2013-06-05 19:29:00,54.2,51.0,30.19,SE,136,1.2,1.2,89,0.01,OVC,,0.01,0.0,WeatherDisplay:10.37,2013-06-05 18:29:00,
2013-06-05 19:34:00,54.0,50.8,30.19,SE,136,1.2,0.0,89,0.01,FEW,OVC,0.01,0.0,WeatherDisplay:10.37,2013-06-05 18:34:00,
2013-06-05 19:39:00,54.1,50.9,30.19,SE,131,1.2,0.0,89,0.01,FEW,OVC,0.01,0.0,WeatherDisplay:10.37,2013-06-05 18:39:00,
2013-06-05 19:45:00,54.1,50.9,30.19,SE,129,0.0,0.0,89,0.00,FEW,OVC,0.01,0.0,WeatherDisplay:10.37,2013-06-05 18:45:00,
2013-06-05 19:50:00,54.2,51.0,30.19,ESE,123,0.0,0.0,89,0.00,FEW,OVC,0.01,0.0,WeatherDisplay:10.37,2013-06-05 18:50:00,
2013-06-05 19:55:00,54.3,51.1,30.19,SE,127,1.2,0.0,89,0.00,FEW,OVC,0.01,0.0,WeatherDisplay:10.37,2013-06-05 18:55:00,
2013-06-05 20:00:00,54.5,51.0,30.19,SE,135,0.0,0.0,88,0.00,FEW,OVC,0.01,0.0,WeatherDisplay:10.37,2013-06-05 19:00:00,
2013-06-05 20:05:00,54.6,51.1,30.19,SE,138,0.0,0.0,88,0.00,FEW,OVC,0.01,0.0,WeatherDisplay:10.37,2013-06-05 19:05:00,
2013-06-05 20:10:00,54.7,50.9,30.19,ESE,108,1.2,1.2,87,0.00,FEW,OVC,0.01,0.0,WeatherDisplay:10.37,2013-06-05 19:10:00,
2013-06-05 20:15:00,54.7,50.9,30.19,SE,141,0.0,0.5,87,0.00,FEW,OVC,0.01,0.0,WeatherDisplay:10.37,2013-06-05 19:15:00,
2013-06-05 20:20:00,54.6,50.5,30.19,ENE,58,2.3,2.3,86,0.00,FEW,OVC,0.01,0.0,WeatherDisplay:10.37,2013-06-05 19:20:00,
2013-06-05 20:25:00,54.4,50.0,30.19,SE,140,0.0,3.0,85,0.00,FEW,OVC,0.01,0.0,WeatherDisplay:10.37,2013-06-05 19:25:00,
2013-06-05 20:30:00,54.3,50.2,30.19,SE,130,1.2,1.2,86,0.00,FEW,OVC,0.01,0.0,WeatherDisplay:10.37,2013-06-05 19:30:00,
2013-06-05 20:35:00,54.3,49.6,30.19,SSE,148,2.3,2.3,84,0.00,-RA,OVC,0.01,0.0,WeatherDisplay:10.37,2013-06-05 19:35:00,
2013-06-05 20:40:00,54.2,49.5,30.19,ESE,122,0.0,2.0,84,0.00,-RA,OVC,0.01,0.0,WeatherDisplay:10.37,2013-06-05 19:40:00,
2013-06-05 20:45:00,54.1,49.4,30.20,SSE,165,0.0,1.0,84,0.00,-RA,OVC,0.01,0.0,WeatherDisplay:10.37,2013-06-05 19:45:00,
2013-06-05 20:50:00,54.0,49.3,30.20,SW,221,0.0,0.0,84,0.00,-RA,OVC,0.01,0.0,WeatherDisplay:10.37,2013-06-05 19:50:00,
2013-06-05 20:55:00,53.8,49.1,30.20,SE,142,0.0,2.0,84,0.00,-RA,OVC,0.01,0.0,WeatherDisplay:10.37,2013-06-05 19:55:00,
2013-06-05 21:00:00,53.7,49.0,30.20,SE,132,0.0,0.0,84,0.00,-RA,OVC,0.01,0.0,WeatherDisplay:10.37,2013-06-05 20:00:00,
2013-06-05 21:05:00,53.6,48.6,30.20,South,169,0.0,3.0,83,0.00,CLR,OVC,0.01,0.0,WeatherDisplay:10.37,2013-06-05 20:05:00,
2013-06-05 21:10:00,53.5,48.5,30.20,SSW,192,0.0,0.0,83,0.00,CLR,OVC,0.01,0.0,WeatherDisplay:10.37,2013-06-05 20:10:00,
2013-06-05 21:15:00,53.4,48.7,30.20,South,183,0.0,1.0,84,0.00,CLR,OVC,0.01,0.0,WeatherDisplay:10.37,2013-06-05 20:15:00,
2013-06-05 21:20:00,53.3,48.6,30.20,SE,137,0.0,1.0,84,0.00,CLR,OVC,0.01,0.0,WeatherDisplay:10.37,2013-06-05 20:20:00,
2013-06-05 21:25:00,53.2,48.5,30.20,SE,138,2.0,2.0,84,0.00,CLR,OVC,0.01,0.0,WeatherDisplay:10.37,2013-06-05 20:25:00,
2013-06-05 21:30:00,53.1,48.4,30.20,SE,146,1.2,1.2,84,0.00,CLR,OVC,0.01,0.0,WeatherDisplay:10.37,2013-06-05 20:30:00,
2013-06-05 21:35:00,53.1,48.3,30.20,SE,127,0.0,1.0,84,0.00,BKN,OVC,0.01,0.0,WeatherDisplay:10.37,2013-06-05 20:35:00,
2013-06-05 21:40:00,52.9,48.2,30.21,SE,125,0.0,1.0,84,0.00,BKN,OVC,0.01,0.0,WeatherDisplay:10.37,2013-06-05 20:40:00,
2013-06-05 21:45:00,52.9,48.2,30.21,ESE,119,0.0,1.0,84,0.00,BKN,OVC,0.01,0.0,WeatherDisplay:10.37,2013-06-05 20:45:00,
2013-06-05 21:50:00,52.7,48.0,30.21,SW,235,1.2,1.2,84,0.00,BKN,OVC,0.01,0.0,WeatherDisplay:10.37,2013-06-05 20:50:00,
2013-06-05 21:55:00,52.5,47.8,30.21,WSW,243,1.2,1.2,84,0.00,BKN,OVC,0.01,0.0,WeatherDisplay:10.37,2013-06-05 20:55:00,
2013-06-05 22:00:00,52.3,47.6,30.21,WSW,241,0.0,2.0,84,0.00,BKN,OVC,0.01,0.0,WeatherDisplay:10.37,2013-06-05 21:00:00,
2013-06-05 22:05:00,52.2,47.8,30.21,SW,221,1.2,0.0,85,0.00,BKN,OVC,0.01,0.0,WeatherDisplay:10.37,2013-06-05 21:05:00,
2013-06-05 22:10:00,52.0,47.6,30.22,South,169,2.3,2.3,85,0.00,BKN,OVC,0.01,0.0,WeatherDisplay:10.37,2013-06-05 21:10:00,
2013-06-05 22:15:00,52.0,47.6,30.22,SW,218,0.0,3.0,85,0.00,BKN,OVC,0.01,0.0,WeatherDisplay:10.37,2013-06-05 21:15:00,
2013-06-05 22:20:00,51.8,47.4,30.22,WSW,257,0.0,1.0,85,0.00,BKN,OVC,0.01,0.0,WeatherDisplay:10.37,2013-06-05 21:20:00,
2013-06-05 22:25:00,51.7,47.3,30.22,WSW,252,0.0,2.0,85,0.00,BKN,OVC,0.01,0.0,WeatherDisplay:10.37,2013-06-05 21:25:00,
2013-06-05 22:30:00,51.7,47.3,30.22,SSE,154,0.0,2.0,85,0.00,BKN,OVC,0.01,0.0,WeatherDisplay:10.37,2013-06-05 21:30:00,
2013-06-05 22:35:00,51.7,47.6,30.22,South,171,0.0,2.0,86,0.00,BKN,OVC,0.01,0.0,WeatherDisplay:10.37,2013-06-05 21:35:00,
2013-06-05 22:40:00,51.7,47.6,30.22,SE,137,1.0,1.0,86,0.00,BKN,OVC,0.01,0.0,WeatherDisplay:10.37,2013-06-05 21:40:00,
2013-06-05 22:45:00,51.6,47.5,30.22,SE,141,0.0,2.0,86,0.00,BKN,OVC,0.01,0.0,WeatherDisplay:10.37,2013-06-05 21:45:00,
2013-06-05 22:50:00,51.5,47.5,30.22,SSE,168,1.2,1.2,86,0.00,BKN,OVC,0.01,0.0,WeatherDisplay:10.37,2013-06-05 21:50:00,
2013-06-05 22:55:00,51.5,47.4,30.22,SSE,157,0.0,1.0,86,0.00,BKN,OVC,0.01,0.0,WeatherDisplay:10.37,2013-06-05 21:55:00,
2013-06-05 23:00:00,51.4,47.4,30.22,SSW,192,0.0,0.0,86,0.00,BKN,OVC,0.01,0.0,WeatherDisplay:10.37,2013-06-05 22:00:00,
2013-06-05 23:05:00,51.3,47.3,30.22,SSW,210,0.0,1.0,86,0.00,BKN,OVC,0.01,0.0,WeatherDisplay:10.37,2013-06-05 22:05:00,
2013-06-05 23:10:00,51.2,47.2,30.22,West,259,1.2,1.2,86,0.00,BKN,OVC,0.01,0.0,WeatherDisplay:10.37,2013-06-05 22:10:00,
2013-06-05 23:15:00,51.1,47.1,30.22,SSW,207,0.0,1.0,86,0.00,BKN,OVC,0.01,0.0,WeatherDisplay:10.37,2013-06-05 22:15:00,
2013-06-05 23:20:00,51.0,47.0,30.22,WSW,249,1.2,0.0,86,0.00,BKN,OVC,0.01,0.0,WeatherDisplay:10.37,2013-06-05 22:20:00,
2013-06-05 23:25:00,51.0,47.3,30.22,WSW,244,0.0,2.0,87,0.00,BKN,OVC,0.01,0.0,WeatherDisplay:10.37,2013-06-05 22:25:00,
2013-06-05 23:30:00,51.0,47.0,30.21,SSW,205,0.0,0.2,86,0.00,BKN,OVC,0.01,0.0,WeatherDisplay:10.37,2013-06-05 22:30:00,
2013-06-05 23:35:00,51.0,47.0,30.21,SW,219,1.2,0.0,86,0.00,FEW,OVC,0.01,0.0,WeatherDisplay:10.37,2013-06-05 22:35:00,
2013-06-05 23:40:00,51.0,47.0,30.21,WNW,302,0.0,1.0,86,0.00,FEW,OVC,0.01,0.0,WeatherDisplay:10.37,2013-06-05 22:40:00,
2013-06-05 23:45:00,51.0,47.3,30.21,NW,307,0.0,1.0,87,0.00,FEW,OVC,0.01,0.0,WeatherDisplay:10.37,2013-06-05 22:45:00,
2013-06-05 23:50:00,51.0,47.3,30.21,West,264,1.2,1.2,87,0.00,FEW,OVC,0.01,0.0,WeatherDisplay:10.37,2013-06-05 22:50:00,
2013-06-05 23:55:00,51.0,47.2,30.21,WSW,238,0.0,1.0,87,0.00,FEW,OVC,0.01,0.0,WeatherDisplay:10.37,2013-06-05 22:55:00,